createdAt,value
2023-05-15T00:01:45.352Z,3.95
2023-05-15T00:04:34.052Z,2.90
2023-05-15T00:07:22.877Z,2.40
2023-05-15T00:10:11.801Z,2.50
2023-05-15T00:13:00.252Z,2.97
2023-05-15T00:15:50.162Z,2.28
2023-05-15T00:18:38.697Z,2.10
2023-05-15T00:21:27.336Z,2.88
2023-05-15T00:24:16.203Z,3.10
2023-05-15T00:27:05.577Z,2.90
2023-05-15T00:29:54.516Z,3.45
2023-05-15T00:32:44.751Z,2.60
2023-05-15T00:35:34.192Z,2.00
2023-05-15T00:38:22.900Z,3.78
2023-05-15T00:41:12.010Z,2.78
2023-05-15T00:44:02.187Z,2.50
2023-05-15T00:46:51.276Z,2.25
2023-05-15T00:49:41.937Z,1.92
2023-05-15T00:52:31.367Z,2.05
2023-05-15T00:55:20.167Z,2.38
2023-05-15T00:58:09.917Z,2.72
2023-05-15T01:00:58.724Z,2.40
2023-05-15T01:03:47.775Z,2.33
2023-05-15T01:06:37.827Z,3.10
2023-05-15T01:09:27.511Z,3.45
2023-05-15T01:12:18.092Z,2.42
2023-05-15T01:15:07.509Z,2.30
2023-05-15T01:17:56.330Z,2.45
2023-05-15T01:20:49.629Z,2.28
2023-05-15T01:23:47.761Z,2.30
2023-05-15T01:26:53.807Z,2.35
2023-05-15T01:29:46.231Z,2.20
2023-05-15T01:32:37.266Z,2.25
2023-05-15T01:35:30.457Z,2.20
2023-05-15T01:38:24.771Z,2.00
2023-05-15T01:41:17.649Z,1.75
2023-05-15T01:44:09.118Z,1.70
2023-05-15T01:47:00.797Z,1.60
2023-05-15T01:49:51.709Z,1.60
2023-05-15T01:52:42.438Z,1.52
2023-05-15T01:55:31.356Z,1.80
2023-05-15T01:58:21.004Z,1.50
2023-05-15T02:01:10.824Z,1.20
2023-05-15T02:04:01.954Z,1.20
2023-05-15T02:06:51.352Z,1.40
2023-05-15T02:09:40.569Z,1.30
2023-05-15T02:12:29.677Z,1.27
2023-05-15T02:15:19.306Z,1.17
2023-05-15T02:18:08.026Z,1.25
2023-05-15T02:20:58.145Z,1.25
2023-05-15T02:23:46.890Z,1.20
2023-05-15T02:26:38.814Z,1.27
2023-05-15T02:29:33.799Z,1.37
2023-05-15T02:32:27.774Z,1.33
2023-05-15T02:35:21.047Z,1.13
2023-05-15T02:38:13.518Z,1.38
2023-05-15T02:41:02.771Z,1.50
2023-05-15T02:43:52.532Z,1.40
2023-05-15T02:46:41.451Z,1.23
2023-05-15T02:49:30.148Z,1.20
2023-05-15T02:52:18.914Z,1.15
2023-05-15T02:55:10.077Z,1.15
2023-05-15T02:57:59.041Z,1.27
2023-05-15T03:00:47.876Z,1.15
2023-05-15T03:03:36.648Z,1.02
2023-05-15T03:06:25.479Z,1.10
2023-05-15T03:09:14.155Z,1.08
2023-05-15T03:12:04.230Z,1.20
2023-05-15T03:14:52.971Z,1.10
2023-05-15T03:17:41.696Z,1.08
2023-05-15T03:20:30.523Z,1.30
2023-05-15T03:23:19.277Z,1.20
2023-05-15T03:26:08.018Z,1.27
2023-05-15T03:28:58.185Z,1.08
2023-05-15T03:31:47.090Z,1.23
2023-05-15T03:34:36.376Z,1.30
2023-05-15T03:37:25.064Z,1.30
2023-05-15T03:40:14.538Z,1.02
2023-05-15T03:43:03.175Z,1.10
2023-05-15T03:45:53.283Z,1.30
2023-05-15T03:48:41.978Z,1.40
2023-05-15T03:51:30.754Z,1.10
2023-05-15T03:54:19.551Z,1.30
2023-05-15T03:57:08.356Z,1.50
2023-05-15T03:59:57.226Z,1.30
2023-05-15T04:02:47.304Z,1.50
2023-05-15T04:05:36.180Z,1.50
2023-05-15T04:08:25.019Z,1.20
2023-05-15T04:11:13.816Z,1.15
2023-05-15T04:14:02.657Z,1.40
2023-05-15T04:16:51.465Z,1.40
2023-05-15T04:19:43.083Z,1.00
2023-05-15T04:22:31.999Z,1.30
2023-05-15T04:25:20.887Z,1.30
2023-05-15T04:28:09.627Z,1.00
2023-05-15T04:30:59.254Z,1.42
2023-05-15T04:33:49.295Z,1.17
2023-05-15T04:36:42.948Z,1.25
2023-05-15T04:39:31.756Z,1.08
2023-05-15T04:42:20.472Z,1.00
2023-05-15T04:45:10.323Z,1.25
2023-05-15T04:47:59.087Z,1.30
2023-05-15T04:50:47.877Z,1.23
2023-05-15T04:53:37.911Z,1.25
2023-05-15T04:56:26.556Z,1.50
2023-05-15T04:59:15.934Z,1.38
2023-05-15T05:02:04.844Z,1.20
2023-05-15T05:04:53.543Z,2.17
2023-05-15T05:07:44.320Z,1.60
2023-05-15T05:10:34.412Z,1.70
2023-05-15T05:13:23.122Z,1.95
2023-05-15T05:16:11.905Z,2.00
2023-05-15T05:19:00.907Z,1.70
2023-05-15T05:21:49.990Z,1.38
2023-05-15T05:24:38.753Z,1.50
2023-05-15T05:27:28.912Z,1.08
2023-05-15T05:30:17.876Z,1.15
2023-05-15T05:33:06.761Z,1.38
2023-05-15T05:35:55.899Z,1.17
2023-05-15T05:38:44.574Z,1.20
2023-05-15T05:41:33.403Z,1.52
2023-05-15T05:44:23.502Z,1.65
2023-05-15T05:47:12.353Z,1.08
2023-05-15T05:50:01.118Z,1.30
2023-05-15T05:52:49.906Z,1.60
2023-05-15T05:55:38.648Z,1.27
2023-05-15T05:58:27.344Z,1.20
2023-05-15T06:01:17.716Z,1.33
2023-05-15T06:04:06.812Z,1.35
2023-05-15T06:06:55.708Z,1.38
2023-05-15T06:09:45.904Z,1.38
2023-05-15T06:12:34.603Z,1.55
2023-05-15T06:15:23.499Z,1.25
2023-05-15T06:18:13.769Z,1.33
2023-05-15T06:21:02.781Z,0.80
2023-05-15T06:23:51.610Z,0.95
2023-05-15T06:26:40.349Z,1.00
2023-05-15T06:29:29.162Z,0.85
2023-05-15T06:32:17.852Z,0.77
2023-05-15T06:35:08.673Z,0.80
2023-05-15T06:37:58.590Z,1.40
2023-05-15T06:40:47.573Z,1.10
2023-05-15T06:43:36.467Z,0.95
2023-05-15T06:46:25.972Z,1.00
2023-05-15T06:49:14.750Z,1.50
2023-05-15T06:52:04.879Z,1.13
2023-05-15T06:54:53.558Z,1.02
2023-05-15T06:57:42.230Z,1.23
2023-05-15T07:00:30.932Z,1.40
2023-05-15T07:03:19.658Z,1.90
2023-05-15T07:06:08.540Z,1.38
2023-05-15T07:08:43.883Z,1.30
2023-05-15T07:11:33.546Z,1.60
2023-05-15T07:14:22.211Z,1.30
2023-05-15T07:17:11.191Z,1.10
2023-05-15T07:20:00.017Z,1.30
2023-05-15T07:22:56.192Z,1.30
2023-05-15T07:25:47.019Z,0.95
2023-05-15T07:28:35.860Z,1.70
2023-05-15T07:31:25.128Z,1.30
2023-05-15T07:34:13.922Z,1.02
2023-05-15T07:37:02.684Z,1.45
2023-05-15T07:39:51.755Z,1.10
2023-05-15T07:42:41.878Z,1.30
2023-05-15T07:45:30.625Z,0.93
2023-05-15T07:48:19.853Z,1.65
2023-05-15T07:51:08.549Z,1.10
2023-05-15T07:53:57.425Z,1.25
2023-05-15T07:56:46.230Z,1.80
2023-05-15T07:59:36.675Z,1.25
2023-05-15T08:02:25.616Z,1.50
2023-05-15T08:05:14.387Z,1.40
2023-05-15T08:08:03.132Z,1.35
2023-05-15T08:10:51.804Z,1.07
2023-05-15T08:13:40.510Z,1.23
2023-05-15T08:16:31.144Z,1.15
2023-05-15T08:19:20.338Z,1.40
2023-05-15T08:22:09.158Z,1.25
2023-05-15T08:24:58.184Z,1.40
2023-05-15T08:27:46.946Z,1.50
2023-05-15T08:30:36.193Z,1.40
2023-05-15T08:33:26.288Z,1.30
2023-05-15T08:36:15.121Z,1.50
2023-05-15T08:39:03.911Z,1.60
2023-05-15T08:41:54.955Z,1.55
2023-05-15T08:44:44.142Z,1.20
2023-05-15T08:47:37.060Z,1.33
2023-05-15T08:50:27.935Z,1.08
2023-05-15T08:53:16.677Z,2.08
2023-05-15T08:56:05.648Z,1.58
2023-05-15T08:58:54.910Z,1.60
2023-05-15T09:01:44.322Z,1.90
2023-05-15T09:04:33.084Z,1.30
2023-05-15T09:07:23.439Z,1.38
2023-05-15T09:10:12.746Z,1.40
2023-05-15T09:13:04.438Z,1.10
2023-05-15T09:15:53.261Z,1.50
2023-05-15T09:18:42.322Z,2.33
2023-05-15T09:21:32.255Z,1.65
2023-05-15T09:24:24.680Z,1.20
2023-05-15T09:27:13.818Z,2.00
2023-05-15T09:30:10.211Z,1.70
2023-05-15T09:33:01.470Z,2.58
2023-05-15T09:35:50.197Z,1.50
2023-05-15T09:38:42.461Z,2.20
2023-05-15T09:41:32.532Z,2.15
2023-05-15T09:44:22.121Z,2.45
2023-05-15T09:47:11.773Z,2.03
2023-05-15T09:50:00.654Z,1.60
2023-05-15T09:52:49.469Z,1.30
2023-05-15T09:55:38.232Z,1.10
2023-05-15T09:58:28.363Z,1.93
2023-05-15T10:01:21.610Z,1.55
2023-05-15T10:04:11.276Z,1.70
2023-05-15T10:07:00.496Z,1.43
2023-05-15T10:09:49.194Z,2.03
2023-05-15T10:12:38.834Z,1.73
2023-05-15T10:15:29.517Z,1.30
2023-05-15T10:18:20.299Z,1.40
2023-05-15T10:21:10.227Z,1.40
2023-05-15T10:23:59.695Z,1.45
2023-05-15T10:26:49.310Z,1.25
2023-05-15T10:29:38.303Z,1.05
2023-05-15T10:32:28.559Z,1.40
2023-05-15T10:35:17.566Z,1.30
2023-05-15T10:38:07.469Z,1.50
2023-05-15T10:41:12.930Z,1.58
2023-05-15T10:44:05.099Z,0.88
2023-05-15T10:46:54.331Z,1.63
2023-05-15T10:49:44.595Z,1.20
2023-05-15T10:52:33.638Z,1.60
2023-05-15T10:55:24.160Z,1.70
2023-05-15T10:58:13.076Z,1.80
2023-05-15T11:01:02.223Z,1.80
2023-05-15T11:03:53.122Z,1.67
2023-05-15T11:06:45.606Z,2.10
2023-05-15T11:09:38.309Z,1.88
2023-05-15T11:12:27.045Z,1.75
2023-05-15T11:15:25.035Z,1.70
2023-05-15T11:18:14.192Z,1.95
2023-05-15T11:21:09.731Z,1.95
2023-05-15T11:24:05.074Z,1.50
2023-05-15T11:26:54.376Z,1.05
2023-05-15T11:29:57.903Z,1.52
2023-05-15T11:32:52.425Z,1.40
2023-05-15T11:35:43.194Z,1.25
2023-05-15T11:38:38.646Z,1.02
2023-05-15T11:41:33.182Z,0.80
2023-05-15T11:44:22.962Z,1.17
2023-05-15T11:47:11.930Z,1.40
2023-05-15T11:50:01.309Z,1.20
2023-05-15T11:52:50.781Z,0.95
2023-05-15T11:55:41.361Z,0.95
2023-05-15T11:58:31.201Z,1.07
2023-05-15T12:01:19.700Z,1.40
2023-05-15T12:04:14.823Z,0.95
2023-05-15T12:07:04.360Z,1.20
2023-05-15T12:09:53.614Z,1.15
2023-05-15T12:12:42.527Z,1.00
2023-05-15T12:15:32.469Z,0.98
2023-05-15T12:18:21.368Z,0.90
2023-05-15T12:21:11.265Z,0.80
2023-05-15T12:24:07.601Z,1.10
2023-05-15T12:26:57.721Z,0.60
2023-05-15T12:29:46.465Z,0.82
2023-05-15T12:32:37.425Z,0.68
2023-05-15T12:35:25.934Z,0.98
2023-05-15T12:38:16.817Z,1.20
2023-05-15T12:41:05.343Z,0.85
2023-05-15T12:43:53.864Z,0.77
2023-05-15T12:46:42.748Z,1.10
2023-05-15T12:49:32.593Z,1.27
2023-05-15T12:52:21.254Z,0.80
2023-05-15T12:55:10.594Z,1.00
2023-05-15T12:58:02.099Z,0.98
2023-05-15T13:00:52.725Z,0.98
2023-05-15T13:03:44.354Z,0.70
2023-05-15T13:06:45.611Z,0.50
2023-05-15T13:09:35.661Z,0.80
2023-05-15T13:12:24.154Z,0.80
2023-05-15T13:15:25.257Z,0.90
2023-05-15T13:18:15.427Z,0.73
2023-05-15T13:21:03.896Z,0.63
2023-05-15T13:23:53.925Z,0.60
2023-05-15T13:26:42.361Z,0.43
2023-05-15T13:29:31.119Z,1.10
2023-05-15T13:32:19.839Z,0.60
2023-05-15T13:35:09.947Z,0.70
2023-05-15T13:37:58.430Z,0.40
2023-05-15T13:40:48.212Z,0.50
2023-05-15T13:43:36.778Z,0.88
2023-05-15T13:46:25.593Z,1.10
2023-05-15T13:49:14.113Z,0.98
2023-05-15T13:52:02.553Z,0.50
2023-05-15T13:54:51.002Z,1.02
2023-05-15T13:57:42.167Z,1.20
2023-05-15T14:00:30.582Z,0.60
2023-05-15T14:03:19.196Z,0.70
2023-05-15T14:06:09.322Z,0.60
2023-05-15T14:08:57.734Z,0.50
2023-05-15T14:11:46.108Z,0.90
2023-05-15T14:14:36.217Z,0.80
2023-05-15T14:17:25.319Z,0.73
2023-05-15T14:20:14.153Z,0.50
2023-05-15T14:23:02.839Z,0.80
2023-05-15T14:25:51.255Z,0.52
2023-05-15T14:28:40.836Z,1.17
2023-05-15T14:31:30.721Z,0.60
2023-05-15T14:34:23.155Z,0.68
2023-05-15T14:37:11.681Z,0.70
2023-05-15T14:40:00.198Z,0.93
2023-05-15T14:42:48.841Z,1.40
2023-05-15T14:45:37.320Z,0.70
2023-05-15T14:48:27.206Z,0.70
2023-05-15T14:51:18.390Z,0.90
2023-05-15T14:54:08.309Z,0.77
2023-05-15T14:56:59.023Z,0.82
2023-05-15T14:59:48.334Z,0.70
2023-05-15T15:02:37.104Z,0.60
2023-05-15T15:05:28.661Z,1.10
2023-05-15T15:08:18.428Z,0.88
2023-05-15T15:11:07.877Z,1.20
2023-05-15T15:13:56.624Z,1.30
2023-05-15T15:16:46.453Z,1.20
2023-05-15T15:19:36.154Z,1.30
2023-05-15T15:22:26.287Z,1.10
2023-05-15T15:25:15.253Z,0.90
2023-05-15T15:28:04.940Z,1.42
2023-05-15T15:30:53.691Z,1.10
2023-05-15T15:33:43.818Z,0.90
2023-05-15T15:36:32.625Z,1.00
2023-05-15T15:39:22.719Z,0.88
2023-05-15T15:42:14.566Z,0.88
2023-05-15T15:45:04.942Z,0.73
2023-05-15T15:47:53.659Z,1.00
2023-05-15T15:50:42.068Z,0.80
2023-05-15T15:53:34.036Z,0.80
2023-05-15T15:56:23.918Z,0.75
2023-05-15T15:59:12.294Z,0.60
2023-05-15T16:02:00.871Z,0.77
2023-05-15T16:04:49.363Z,0.50
2023-05-15T16:07:38.120Z,0.50
2023-05-15T16:10:26.728Z,0.50
2023-05-15T16:13:16.624Z,0.25
2023-05-15T16:16:05.071Z,0.40
2023-05-15T16:18:55.383Z,2.28
2023-05-15T16:21:44.118Z,0.50
2023-05-15T16:24:35.786Z,0.57
2023-05-15T16:27:24.294Z,0.43
2023-05-15T16:30:15.361Z,0.30
2023-05-15T16:33:03.877Z,0.70
2023-05-15T16:35:53.611Z,0.40
2023-05-15T16:38:42.757Z,0.30
2023-05-15T16:41:31.275Z,0.30
2023-05-15T16:44:20.275Z,0.30
2023-05-15T16:47:10.149Z,0.15
2023-05-15T16:49:59.855Z,0.40
2023-05-15T16:52:49.036Z,0.40
2023-05-15T16:55:37.559Z,0.50
2023-05-15T16:58:26.110Z,0.43
2023-05-15T17:01:14.567Z,0.30
2023-05-15T17:04:04.549Z,0.38
2023-05-15T17:06:53.012Z,0.50
2023-05-15T17:09:43.114Z,0.43
2023-05-15T17:12:31.636Z,0.88
2023-05-15T17:15:20.160Z,0.35
2023-05-15T17:18:08.616Z,0.38
2023-05-15T17:20:58.556Z,0.30
2023-05-15T17:23:47.034Z,0.38
2023-05-15T17:26:35.646Z,0.40
2023-05-15T17:29:25.224Z,0.30
2023-05-15T17:32:14.311Z,0.50
2023-05-15T17:35:02.963Z,0.60
2023-05-15T17:37:52.857Z,0.80
2023-05-15T17:40:41.309Z,0.40
2023-05-15T17:43:29.826Z,0.70
2023-05-15T17:46:18.486Z,0.40
2023-05-15T17:49:06.981Z,0.70
2023-05-15T17:51:55.484Z,0.40
2023-05-15T17:54:45.374Z,0.30
2023-05-15T17:57:33.852Z,0.50
2023-05-15T18:00:22.754Z,0.50
2023-05-15T18:03:11.359Z,0.60
2023-05-15T18:05:59.840Z,32.97
2023-05-15T18:08:48.570Z,55.60
2023-05-15T18:11:38.352Z,35.90
2023-05-15T18:14:26.930Z,19.50
2023-05-15T18:17:16.226Z,9.85
2023-05-15T18:20:06.017Z,8.15
2023-05-15T18:22:54.491Z,6.20
2023-05-15T18:25:42.929Z,3.47
2023-05-15T18:28:33.188Z,1.30
2023-05-15T18:31:21.640Z,0.70
2023-05-15T18:34:10.073Z,0.60
2023-05-15T18:36:58.476Z,0.70
2023-05-15T18:39:48.000Z,0.63
2023-05-15T18:42:36.473Z,0.50
2023-05-15T18:45:26.886Z,3.40
2023-05-15T18:48:15.738Z,2.20
2023-05-15T18:51:04.267Z,1.42
2023-05-15T18:53:52.717Z,1.02
2023-05-15T18:56:43.106Z,0.93
2023-05-15T18:59:31.998Z,1.30
2023-05-15T19:02:24.029Z,1.85
2023-05-15T19:05:13.729Z,2.15
2023-05-15T19:08:02.409Z,2.33
2023-05-15T19:10:51.784Z,3.08
2023-05-15T19:13:40.198Z,1.80
2023-05-15T19:16:28.825Z,1.80
2023-05-15T19:19:18.994Z,1.63
2023-05-15T19:22:07.764Z,1.20
2023-05-15T19:24:56.181Z,1.42
2023-05-15T19:27:44.613Z,1.45
2023-05-15T19:30:33.435Z,1.33
2023-05-15T19:33:22.021Z,1.42
2023-05-15T19:36:12.968Z,1.80
2023-05-15T19:39:01.375Z,1.92
2023-05-15T19:41:49.878Z,1.60
2023-05-15T19:44:38.262Z,1.30
2023-05-15T19:47:26.873Z,1.23
2023-05-15T19:50:15.347Z,1.25
2023-05-15T19:53:05.098Z,1.27
2023-05-15T19:55:54.134Z,1.25
2023-05-15T19:58:42.615Z,1.40
2023-05-15T20:01:31.076Z,1.30
2023-05-15T20:04:20.993Z,1.52
2023-05-15T20:07:09.361Z,1.27
2023-05-15T20:09:59.102Z,1.48
2023-05-15T20:12:47.798Z,1.38
2023-05-15T20:15:39.825Z,1.50
2023-05-15T20:18:31.466Z,1.67
2023-05-15T20:21:21.487Z,1.55
2023-05-15T20:24:10.308Z,1.58
2023-05-15T20:27:00.142Z,1.30
2023-05-15T20:29:48.620Z,1.25
2023-05-15T20:32:37.489Z,1.48
2023-05-15T20:35:26.782Z,1.67
2023-05-15T20:38:17.566Z,1.77
2023-05-15T20:41:06.004Z,1.67
2023-05-15T20:43:55.975Z,1.98
2023-05-15T20:46:44.933Z,1.83
2023-05-15T20:49:33.582Z,1.42
2023-05-15T20:52:22.217Z,1.60
2023-05-15T20:55:16.280Z,2.80
2023-05-15T20:58:04.765Z,1.80
2023-05-15T21:00:54.544Z,2.17
2023-05-15T21:03:43.517Z,2.00
2023-05-15T21:06:32.094Z,1.83
2023-05-15T21:09:20.478Z,2.30
2023-05-15T21:12:09.360Z,2.08
2023-05-15T21:14:57.828Z,1.67
2023-05-15T21:17:47.711Z,1.80
2023-05-15T21:20:36.082Z,1.60
2023-05-15T21:23:24.434Z,1.80
2023-05-15T21:26:12.927Z,2.10
2023-05-15T21:29:01.436Z,2.30
2023-05-15T21:31:49.941Z,1.92
2023-05-15T21:34:40.229Z,3.05
2023-05-15T21:37:28.690Z,2.70
2023-05-15T21:40:17.237Z,2.53
2023-05-15T21:43:05.669Z,2.72
2023-05-15T21:45:55.909Z,2.10
2023-05-15T21:48:44.354Z,2.60
2023-05-15T21:51:34.521Z,2.65
2023-05-15T21:54:22.986Z,2.40
2023-05-15T21:57:11.673Z,2.83
2023-05-15T22:00:00.204Z,2.70
2023-05-15T22:02:48.744Z,2.50
2023-05-15T22:05:37.522Z,2.53
2023-05-15T22:08:27.634Z,3.60
2023-05-15T22:11:17.148Z,2.80
2023-05-15T22:14:06.131Z,3.22
2023-05-15T22:16:54.856Z,3.28
2023-05-15T22:19:45.839Z,3.40
2023-05-15T22:22:34.739Z,2.42
2023-05-15T22:25:24.920Z,2.75
2023-05-15T22:28:13.612Z,2.50
2023-05-15T22:31:02.325Z,3.05
2023-05-15T22:33:51.331Z,2.70
2023-05-15T22:36:40.014Z,3.17
2023-05-15T22:39:28.685Z,2.70
2023-05-15T22:42:19.176Z,2.30
2023-05-15T22:45:08.359Z,2.50
2023-05-15T22:47:57.128Z,2.50
2023-05-15T22:50:45.938Z,2.30
2023-05-15T22:53:34.657Z,2.97
2023-05-15T22:56:23.387Z,2.47
2023-05-15T22:59:13.562Z,3.25
2023-05-15T23:02:02.280Z,2.30
2023-05-15T23:04:50.952Z,2.33
2023-05-15T23:07:39.650Z,2.40
2023-05-15T23:10:28.698Z,2.38
2023-05-15T23:13:17.707Z,2.17
2023-05-15T23:16:08.247Z,2.63
2023-05-15T23:18:57.491Z,3.03
2023-05-15T23:21:46.255Z,2.75
2023-05-15T23:24:34.944Z,2.40
2023-05-15T23:27:23.694Z,2.30
2023-05-15T23:30:12.723Z,2.60
2023-05-15T23:33:02.836Z,2.55
2023-05-15T23:35:52.338Z,2.20
2023-05-15T23:38:41.204Z,2.42
2023-05-15T23:41:29.947Z,2.03
2023-05-15T23:44:18.721Z,2.47
2023-05-15T23:47:07.416Z,2.95
2023-05-15T23:49:57.179Z,2.20
2023-05-15T23:52:45.757Z,2.97
2023-05-15T23:55:34.144Z,2.53
2023-05-15T23:58:23.553Z,3.90
